createdAt,value
2019-03-29T00:01:25.832Z,102647.28
2019-03-29T00:03:56.285Z,102641.53
2019-03-29T00:06:26.637Z,102651.09
2019-03-29T00:08:57.233Z,102657.05
2019-03-29T00:11:27.594Z,102658.02
2019-03-29T00:13:58.250Z,102656.81
2019-03-29T00:16:28.608Z,102656.37
2019-03-29T00:18:58.975Z,102653.83
2019-03-29T00:21:29.330Z,102660.47
2019-03-29T00:24:06.586Z,102659.64
2019-03-29T00:26:31.762Z,102665.39
2019-03-29T00:29:03.056Z,102660.89
2019-03-29T00:31:33.577Z,102663.27
2019-03-29T00:34:03.939Z,102661.22
2019-03-29T00:36:34.314Z,102660.44
2019-03-29T00:39:05.819Z,102667.00
2019-03-29T00:41:36.194Z,102663.32
2019-03-29T00:44:06.567Z,102673.98
2019-03-29T00:46:37.944Z,102670.73
2019-03-29T00:49:08.421Z,102670.34
2019-03-29T00:51:40.226Z,102670.42
2019-03-29T00:54:11.092Z,102670.03
2019-03-29T00:56:41.443Z,102671.48
2019-03-29T00:59:12.095Z,102677.05
2019-03-29T01:01:42.458Z,102683.00
2019-03-29T01:04:14.284Z,102677.91
2019-03-29T01:06:44.643Z,102668.77
2019-03-29T01:09:14.986Z,102677.56
2019-03-29T01:11:46.817Z,102675.48
2019-03-29T01:14:20.738Z,102674.13
2019-03-29T01:16:51.095Z,102679.16
2019-03-29T01:19:21.457Z,102668.02
2019-03-29T01:21:51.823Z,102668.28
2019-03-29T01:24:22.327Z,102668.97
2019-03-29T01:26:53.103Z,102670.61
2019-03-29T01:29:23.624Z,102673.39
2019-03-29T01:31:53.978Z,102668.05
2019-03-29T01:34:24.346Z,102669.06
2019-03-29T01:36:54.700Z,102661.83
2019-03-29T01:39:25.072Z,102662.95
2019-03-29T01:41:55.443Z,102664.92
2019-03-29T01:44:25.795Z,102668.23
2019-03-29T01:46:56.199Z,102668.19
2019-03-29T01:49:26.572Z,102659.81
2019-03-29T01:51:56.915Z,102660.37
2019-03-29T01:54:27.267Z,102653.14
2019-03-29T01:56:57.594Z,102655.27
2019-03-29T01:59:28.026Z,102646.91
2019-03-29T02:01:58.393Z,102641.01
2019-03-29T02:04:30.690Z,102643.66
2019-03-29T02:07:01.048Z,102647.93
2019-03-29T02:09:31.414Z,102645.77
2019-03-29T02:12:02.058Z,102634.72
2019-03-29T02:14:32.404Z,102639.97
2019-03-29T02:17:02.926Z,102637.08
2019-03-29T02:19:33.300Z,102640.56
2019-03-29T02:22:03.681Z,102632.83
2019-03-29T02:24:36.794Z,102632.36
2019-03-29T02:27:07.226Z,102644.50
2019-03-29T02:29:37.571Z,102636.20
2019-03-29T02:32:07.971Z,102637.28
2019-03-29T02:34:38.300Z,102641.39
2019-03-29T02:37:09.000Z,102638.57
2019-03-29T02:39:39.360Z,102628.17
2019-03-29T02:42:09.725Z,102636.30
2019-03-29T02:44:40.095Z,102630.05
2019-03-29T02:47:10.409Z,102630.12
2019-03-29T02:49:42.708Z,102626.83
2019-03-29T02:52:15.069Z,102628.73
2019-03-29T02:54:47.320Z,102623.95
2019-03-29T02:57:19.683Z,102626.83
2019-03-29T02:59:53.014Z,102626.29
2019-03-29T03:02:26.529Z,102622.38
2019-03-29T03:04:59.057Z,102624.36
2019-03-29T03:07:31.428Z,102624.56
2019-03-29T03:10:08.005Z,102623.27
2019-03-29T03:12:40.394Z,102621.63
2019-03-29T03:15:12.666Z,102628.05
2019-03-29T03:17:44.961Z,102629.38
2019-03-29T03:20:17.330Z,102631.39
2019-03-29T03:22:49.681Z,102635.08
2019-03-29T03:25:21.978Z,102641.66
2019-03-29T03:27:54.326Z,102639.76
2019-03-29T03:30:26.697Z,102636.66
2019-03-29T03:32:59.008Z,102641.61
2019-03-29T03:35:31.286Z,102648.76
2019-03-29T03:38:03.606Z,102650.30
2019-03-29T03:40:36.006Z,102643.03
2019-03-29T03:43:08.374Z,102648.29
2019-03-29T03:45:40.748Z,102641.10
2019-03-29T03:48:13.084Z,102642.13
2019-03-29T03:50:45.429Z,102645.77
2019-03-29T03:53:17.817Z,102644.36
2019-03-29T03:55:50.115Z,102645.07
2019-03-29T03:58:22.431Z,102643.59
2019-03-29T04:00:57.824Z,102646.20
2019-03-29T04:03:30.291Z,102646.27
2019-03-29T04:06:02.597Z,102642.68
2019-03-29T04:08:34.918Z,102645.45
2019-03-29T04:11:07.217Z,102651.09
2019-03-29T04:13:39.636Z,102647.78
2019-03-29T04:16:11.901Z,102644.52
2019-03-29T04:18:44.258Z,102644.80
2019-03-29T04:21:16.549Z,102650.91
2019-03-29T04:23:48.920Z,102649.24
2019-03-29T04:26:21.505Z,102653.69
2019-03-29T04:29:04.443Z,102663.90
2019-03-29T04:31:28.072Z,102661.75
2019-03-29T04:34:00.380Z,102657.84
2019-03-29T04:36:32.730Z,102653.72
2019-03-29T04:39:05.936Z,102655.62
2019-03-29T04:41:38.201Z,102660.78
2019-03-29T04:44:11.045Z,102656.86
2019-03-29T04:46:43.370Z,102657.73
2019-03-29T04:49:15.820Z,102655.83
2019-03-29T04:51:48.194Z,102659.58
2019-03-29T04:54:20.518Z,102662.08
2019-03-29T04:56:52.882Z,102670.17
2019-03-29T04:59:25.628Z,102667.84
2019-03-29T05:01:57.915Z,102671.47
2019-03-29T05:04:30.227Z,102673.80
2019-03-29T05:07:02.623Z,102672.17
2019-03-29T05:09:34.973Z,102681.84
2019-03-29T05:12:07.303Z,102678.29
2019-03-29T05:14:39.617Z,102675.33
2019-03-29T05:17:12.194Z,102677.77
2019-03-29T05:19:44.779Z,102675.22
2019-03-29T05:22:15.335Z,102675.00
2019-03-29T05:24:46.810Z,102680.48
2019-03-29T05:27:17.253Z,102685.50
2019-03-29T05:29:47.842Z,102686.05
2019-03-29T05:32:18.365Z,102687.89
2019-03-29T05:34:48.762Z,102687.89
2019-03-29T05:37:19.232Z,102693.52
2019-03-29T05:39:49.700Z,102690.20
2019-03-29T05:42:20.246Z,102687.87
2019-03-29T05:44:50.652Z,102689.47
2019-03-29T05:47:21.030Z,102685.28
2019-03-29T05:49:51.404Z,102693.34
2019-03-29T05:52:21.926Z,102687.05
2019-03-29T05:54:52.309Z,102684.11
2019-03-29T05:57:22.685Z,102690.03
2019-03-29T05:59:53.054Z,102693.44
2019-03-29T06:02:23.636Z,102698.64
2019-03-29T06:04:54.017Z,102698.07
2019-03-29T06:07:24.394Z,102697.33
2019-03-29T06:09:54.763Z,102697.91
2019-03-29T06:12:27.267Z,102692.12
2019-03-29T06:14:57.679Z,102687.66
2019-03-29T06:17:28.047Z,102684.48
2019-03-29T06:19:59.154Z,102684.41
2019-03-29T06:22:29.932Z,102692.88
2019-03-29T06:25:00.330Z,102682.82
2019-03-29T06:27:31.640Z,102691.27
2019-03-29T06:30:02.067Z,102686.23
2019-03-29T06:32:33.525Z,102684.95
2019-03-29T06:35:06.001Z,102686.23
2019-03-29T06:37:36.872Z,102689.39
2019-03-29T06:40:09.896Z,102688.52
2019-03-29T06:42:40.273Z,102680.56
2019-03-29T06:45:10.665Z,102678.55
2019-03-29T06:47:41.041Z,102677.37
2019-03-29T06:50:13.942Z,102677.75
2019-03-29T06:52:43.498Z,102681.08
2019-03-29T06:55:13.887Z,102681.22
2019-03-29T06:57:44.245Z,102679.16
2019-03-29T07:00:14.595Z,102678.42
2019-03-29T07:02:44.984Z,102690.51
2019-03-29T07:05:15.360Z,102688.95
2019-03-29T07:07:45.751Z,102689.53
2019-03-29T07:10:16.187Z,102692.25
2019-03-29T07:12:46.773Z,102684.61
2019-03-29T07:15:17.157Z,102689.77
2019-03-29T07:17:47.531Z,102691.16
2019-03-29T07:20:17.929Z,102684.34
2019-03-29T07:22:48.311Z,102685.59
2019-03-29T07:25:18.760Z,102689.53
2019-03-29T07:27:52.202Z,102687.37
2019-03-29T07:30:21.233Z,102686.56
2019-03-29T07:32:51.623Z,102681.86
2019-03-29T07:35:22.000Z,102683.61
2019-03-29T07:37:52.443Z,102681.63
2019-03-29T07:40:22.819Z,102680.63
2019-03-29T07:42:53.206Z,102677.89
2019-03-29T07:45:23.567Z,102682.37
2019-03-29T07:47:53.957Z,102684.25
2019-03-29T07:50:24.474Z,102684.58
2019-03-29T07:52:54.854Z,102679.75
2019-03-29T07:55:25.195Z,102684.31
2019-03-29T07:57:55.553Z,102679.64
2019-03-29T08:00:25.960Z,102680.64
2019-03-29T08:02:56.349Z,102683.23
2019-03-29T08:05:26.725Z,102683.09
2019-03-29T08:07:58.176Z,102678.16
2019-03-29T08:10:31.183Z,102678.02
2019-03-29T08:13:00.621Z,102685.75
2019-03-29T08:15:30.971Z,102682.12
2019-03-29T08:18:01.881Z,102677.95
2019-03-29T08:20:43.874Z,102680.67
2019-03-29T08:23:05.573Z,102679.23
2019-03-29T08:25:37.006Z,102679.98
2019-03-29T08:28:07.375Z,102675.67
2019-03-29T08:30:38.674Z,102675.36
2019-03-29T08:33:09.031Z,102672.53
2019-03-29T08:35:39.407Z,102675.55
2019-03-29T08:38:09.771Z,102670.45
2019-03-29T08:40:40.130Z,102671.41
2019-03-29T08:43:10.786Z,102673.43
2019-03-29T08:45:41.155Z,102678.53
2019-03-29T08:48:11.540Z,102673.45
2019-03-29T08:50:41.917Z,102673.95
2019-03-29T08:53:12.362Z,102668.12
2019-03-29T08:55:45.910Z,102668.75
2019-03-29T08:58:16.085Z,102666.64
2019-03-29T09:00:46.439Z,102666.63
2019-03-29T09:03:17.879Z,102675.42
2019-03-29T09:05:48.504Z,102673.83
2019-03-29T09:08:18.866Z,102675.30
2019-03-29T09:10:49.286Z,102672.94
2019-03-29T09:13:19.902Z,102672.92
2019-03-29T09:15:51.517Z,102671.81
2019-03-29T09:18:21.857Z,102670.70
2019-03-29T09:20:52.202Z,102670.30
2019-03-29T09:23:22.583Z,102665.02
2019-03-29T09:25:52.947Z,102670.30
2019-03-29T09:28:23.332Z,102667.98
2019-03-29T09:30:56.330Z,102669.30
2019-03-29T09:33:25.739Z,102665.89
2019-03-29T09:35:56.088Z,102657.83
2019-03-29T09:38:26.438Z,102665.45
2019-03-29T09:40:59.075Z,102668.67
2019-03-29T09:43:28.932Z,102672.05
2019-03-29T09:45:59.302Z,102673.91
2019-03-29T09:48:30.530Z,102676.18
2019-03-29T09:51:01.073Z,102676.53
2019-03-29T09:53:31.415Z,102677.99
2019-03-29T09:56:01.780Z,102672.78
2019-03-29T09:58:31.970Z,102675.80
2019-03-29T10:01:02.436Z,102676.17
2019-03-29T10:03:32.795Z,102670.98
2019-03-29T10:06:03.287Z,102673.45
2019-03-29T10:08:33.640Z,102672.31
2019-03-29T10:11:04.019Z,102676.66
2019-03-29T10:13:34.417Z,102674.27
2019-03-29T10:16:04.787Z,102671.22
2019-03-29T10:18:35.133Z,102669.19
2019-03-29T10:21:05.485Z,102666.34
2019-03-29T10:23:35.884Z,102668.77
2019-03-29T10:26:06.268Z,102663.16
2019-03-29T10:28:36.670Z,102653.77
2019-03-29T10:31:07.042Z,102658.20
2019-03-29T10:33:37.642Z,102654.84
2019-03-29T10:36:08.047Z,102656.30
2019-03-29T10:38:38.393Z,102652.03
2019-03-29T10:41:08.886Z,102650.01
2019-03-29T10:43:39.221Z,102647.61
2019-03-29T10:46:09.646Z,102644.48
2019-03-29T10:48:40.013Z,102645.75
2019-03-29T10:51:10.709Z,102640.55
2019-03-29T10:53:41.447Z,102627.54
2019-03-29T10:56:12.477Z,102619.80
2019-03-29T10:58:45.051Z,102621.25
2019-03-29T11:01:16.728Z,102615.31
2019-03-29T11:03:47.203Z,102616.49
2019-03-29T11:06:18.365Z,102615.96
2019-03-29T11:08:49.047Z,102611.41
2019-03-29T11:11:19.628Z,102617.31
2019-03-29T11:13:50.270Z,102610.99
2019-03-29T11:16:20.760Z,102614.30
2019-03-29T11:18:51.121Z,102608.36
2019-03-29T11:21:21.486Z,102609.27
2019-03-29T11:23:51.866Z,102601.40
2019-03-29T11:26:22.658Z,102600.08
2019-03-29T11:28:53.051Z,102606.78
2019-03-29T11:31:25.544Z,102603.84
2019-03-29T11:33:58.570Z,102597.48
2019-03-29T11:36:28.933Z,102588.96
2019-03-29T11:38:59.367Z,102597.66
2019-03-29T11:41:29.916Z,102597.21
2019-03-29T11:44:00.275Z,102587.88
2019-03-29T11:46:30.639Z,102588.47
2019-03-29T11:49:01.000Z,102587.11
2019-03-29T11:51:31.345Z,102589.86
2019-03-29T11:54:01.739Z,102587.59
2019-03-29T11:56:32.097Z,102581.61
2019-03-29T11:59:02.468Z,102576.75
2019-03-29T12:01:32.874Z,102576.93
2019-03-29T12:04:03.305Z,102568.92
2019-03-29T12:06:34.644Z,102568.23
2019-03-29T12:09:06.964Z,102559.84
2019-03-29T12:11:37.477Z,102560.36
2019-03-29T12:14:08.869Z,102556.09
2019-03-29T12:16:39.199Z,102546.02
2019-03-29T12:19:09.581Z,102543.50
2019-03-29T12:21:40.107Z,102536.73
2019-03-29T12:24:10.666Z,102539.74
2019-03-29T12:26:41.025Z,102529.58
2019-03-29T12:29:11.562Z,102517.61
2019-03-29T12:31:48.560Z,102520.70
2019-03-29T12:34:19.145Z,102523.58
2019-03-29T12:36:49.774Z,102517.70
2019-03-29T12:39:20.230Z,102514.38
2019-03-29T12:41:50.664Z,102506.88
2019-03-29T12:44:21.029Z,102508.27
2019-03-29T12:46:51.624Z,102506.47
2019-03-29T12:49:21.971Z,102506.66
2019-03-29T12:51:52.334Z,102505.34
2019-03-29T12:54:22.772Z,102503.09
2019-03-29T12:56:53.498Z,102496.03
2019-03-29T12:59:23.948Z,102493.52
2019-03-29T13:01:54.325Z,102490.47
2019-03-29T13:04:26.077Z,102500.09
2019-03-29T13:06:56.435Z,102487.74
2019-03-29T13:09:26.811Z,102486.25
2019-03-29T13:11:57.222Z,102485.61
2019-03-29T13:14:27.508Z,102477.91
2019-03-29T13:16:57.877Z,102478.59
2019-03-29T13:19:28.229Z,102478.00
2019-03-29T13:21:58.590Z,102473.69
2019-03-29T13:24:28.976Z,102475.59
2019-03-29T13:26:59.458Z,102471.13
2019-03-29T13:29:30.113Z,102473.05
2019-03-29T13:32:00.572Z,102464.99
2019-03-29T13:34:30.931Z,102460.39
2019-03-29T13:37:01.469Z,102458.09
2019-03-29T13:39:32.090Z,102460.31
2019-03-29T13:42:02.504Z,102451.83
2019-03-29T13:44:32.883Z,102459.02
2019-03-29T13:47:04.384Z,102453.27
2019-03-29T13:49:34.774Z,102449.67
2019-03-29T13:52:05.132Z,102444.42
2019-03-29T13:54:35.518Z,102440.39
2019-03-29T13:57:08.231Z,102436.42
2019-03-29T13:59:38.729Z,102438.80
2019-03-29T14:02:11.448Z,102436.77
2019-03-29T14:04:41.847Z,102436.27
2019-03-29T14:07:12.218Z,102434.84
2019-03-29T14:09:42.570Z,102428.52
2019-03-29T14:12:13.105Z,102425.36
2019-03-29T14:14:43.449Z,102431.75
2019-03-29T14:17:13.787Z,102421.97
2019-03-29T14:19:44.411Z,102419.69
2019-03-29T14:22:14.760Z,102424.38
2019-03-29T14:24:45.137Z,102419.75
2019-03-29T14:27:15.484Z,102414.02
2019-03-29T14:29:45.840Z,102404.78
2019-03-29T14:32:16.259Z,102407.02
2019-03-29T14:34:46.816Z,102400.88
2019-03-29T14:37:18.238Z,102399.87
2019-03-29T14:39:48.753Z,102392.29
2019-03-29T14:42:19.338Z,102388.38
2019-03-29T14:44:52.733Z,102390.38
2019-03-29T14:47:21.839Z,102388.03
2019-03-29T14:49:52.228Z,102387.50
2019-03-29T14:52:22.669Z,102387.17
2019-03-29T14:54:53.097Z,102381.68
2019-03-29T14:57:23.697Z,102378.78
2019-03-29T14:59:54.074Z,102378.78
2019-03-29T15:02:25.451Z,102378.45
2019-03-29T15:04:55.802Z,102380.64
2019-03-29T15:07:26.156Z,102376.01
2019-03-29T15:09:56.531Z,102370.83
2019-03-29T15:12:26.871Z,102371.73
2019-03-29T15:15:05.889Z,102372.41
2019-03-29T15:17:31.782Z,102370.25
2019-03-29T15:20:02.204Z,102370.85
2019-03-29T15:22:33.222Z,102366.40
2019-03-29T15:25:04.014Z,102361.53
2019-03-29T15:27:34.374Z,102358.95
2019-03-29T15:30:06.777Z,102358.48
2019-03-29T15:32:38.584Z,102353.69
2019-03-29T15:35:08.944Z,102358.84
2019-03-29T15:37:39.345Z,102352.89
2019-03-29T15:40:09.710Z,102352.06
2019-03-29T15:42:41.521Z,102346.84
2019-03-29T15:45:20.285Z,102344.78
2019-03-29T15:47:43.990Z,102336.61
2019-03-29T15:50:14.370Z,102331.86
2019-03-29T15:52:44.778Z,102334.38
2019-03-29T15:55:15.201Z,102332.31
2019-03-29T15:57:45.590Z,102332.61
2019-03-29T16:00:17.041Z,102332.23
2019-03-29T16:02:48.857Z,102330.98
2019-03-29T16:05:21.980Z,102333.05
2019-03-29T16:07:53.362Z,102329.62
2019-03-29T16:10:24.736Z,102331.92
2019-03-29T16:12:55.088Z,102328.02
2019-03-29T16:15:34.209Z,102328.23
2019-03-29T16:17:58.943Z,102334.55
2019-03-29T16:20:29.693Z,102325.53
2019-03-29T16:23:00.105Z,102318.94
2019-03-29T16:25:30.480Z,102324.13
2019-03-29T16:28:02.104Z,102321.69
2019-03-29T16:30:32.479Z,102320.93
2019-03-29T16:33:02.845Z,102318.41
2019-03-29T16:35:33.215Z,102320.27
2019-03-29T16:38:03.660Z,102316.58
2019-03-29T16:40:34.027Z,102317.69
2019-03-29T16:43:04.421Z,102310.03
2019-03-29T16:45:47.357Z,102309.25
2019-03-29T16:48:07.242Z,102305.69
2019-03-29T16:50:38.638Z,102306.05
2019-03-29T16:53:09.105Z,102307.55
2019-03-29T16:55:39.565Z,102304.38
2019-03-29T16:58:10.256Z,102298.17
2019-03-29T17:00:40.662Z,102296.40
2019-03-29T17:03:11.071Z,102304.48
2019-03-29T17:05:42.203Z,102296.09
2019-03-29T17:08:13.655Z,102296.83
2019-03-29T17:10:44.033Z,102291.41
2019-03-29T17:13:14.446Z,102291.88
2019-03-29T17:15:45.480Z,102293.39
2019-03-29T17:18:28.544Z,102289.08
2019-03-29T17:20:48.041Z,102285.64
2019-03-29T17:23:18.398Z,102290.44
2019-03-29T17:25:48.772Z,102289.84
2019-03-29T17:28:19.157Z,102288.60
2019-03-29T17:30:51.218Z,102286.84
2019-03-29T17:33:22.544Z,102288.47
2019-03-29T17:35:53.040Z,102295.41
2019-03-29T17:38:23.501Z,102288.84
2019-03-29T17:40:54.334Z,102286.11
2019-03-29T17:43:24.727Z,102279.81
2019-03-29T17:45:55.284Z,102280.95
2019-03-29T17:48:25.597Z,102283.19
2019-03-29T17:50:55.962Z,102288.25
2019-03-29T17:53:26.335Z,102280.97
2019-03-29T17:55:56.714Z,102289.00
2019-03-29T17:58:27.073Z,102284.06
2019-03-29T18:00:58.031Z,102287.91
2019-03-29T18:03:28.466Z,102287.41
2019-03-29T18:05:59.164Z,102285.80
2019-03-29T18:08:29.795Z,102287.03
2019-03-29T18:11:00.886Z,102286.92
2019-03-29T18:13:31.619Z,102283.46
2019-03-29T18:16:02.647Z,102285.81
2019-03-29T18:18:33.787Z,102282.59
2019-03-29T18:21:04.174Z,102284.58
2019-03-29T18:23:34.566Z,102280.24
2019-03-29T18:26:04.986Z,102282.08
2019-03-29T18:28:37.984Z,102285.39
2019-03-29T18:31:08.709Z,102286.39
2019-03-29T18:33:39.169Z,102288.13
2019-03-29T18:36:09.541Z,102278.74
2019-03-29T18:38:40.081Z,102277.63
2019-03-29T18:41:11.041Z,102284.17
2019-03-29T18:43:41.364Z,102276.88
2019-03-29T18:46:12.226Z,102275.03
2019-03-29T18:48:42.985Z,102274.92
2019-03-29T18:51:13.355Z,102280.24
2019-03-29T18:53:44.106Z,102270.28
2019-03-29T18:56:14.748Z,102272.34
2019-03-29T18:58:45.388Z,102271.73
2019-03-29T19:01:15.753Z,102276.05
2019-03-29T19:03:46.663Z,102279.87
2019-03-29T19:06:17.371Z,102279.48
2019-03-29T19:08:48.861Z,102279.38
2019-03-29T19:11:20.742Z,102270.61
2019-03-29T19:13:51.522Z,102270.98
2019-03-29T19:16:21.981Z,102273.58
2019-03-29T19:18:52.628Z,102269.50
2019-03-29T19:21:25.675Z,102273.50
2019-03-29T19:23:56.268Z,102275.80
2019-03-29T19:26:27.213Z,102271.52
2019-03-29T19:28:57.782Z,102270.28
2019-03-29T19:31:28.231Z,102269.05
2019-03-29T19:34:00.362Z,102267.77
2019-03-29T19:36:31.125Z,102271.48
2019-03-29T19:39:02.107Z,102272.95
2019-03-29T19:41:33.133Z,102271.73
2019-03-29T19:44:03.783Z,102269.38
2019-03-29T19:46:34.726Z,102265.96
2019-03-29T19:49:05.124Z,102263.13
2019-03-29T19:51:36.368Z,102261.76
2019-03-29T19:54:07.859Z,102259.86
2019-03-29T19:56:38.983Z,102257.63
2019-03-29T19:59:11.129Z,102253.94
2019-03-29T20:01:41.691Z,102252.31
2019-03-29T20:04:12.107Z,102250.47
2019-03-29T20:06:42.486Z,102240.52
2019-03-29T20:09:12.841Z,102247.43
2019-03-29T20:11:43.210Z,102242.37
2019-03-29T20:14:13.610Z,102234.22
2019-03-29T20:16:44.876Z,102226.81
2019-03-29T20:19:15.280Z,102234.34
2019-03-29T20:21:45.847Z,102231.38
2019-03-29T20:24:17.880Z,102227.55
2019-03-29T20:26:48.606Z,102229.41
2019-03-29T20:29:19.206Z,102232.73
2019-03-29T20:31:50.935Z,102237.55
2019-03-29T20:34:22.424Z,102236.81
2019-03-29T20:36:53.956Z,102234.59
2019-03-29T20:39:26.868Z,102235.45
2019-03-29T20:41:57.721Z,102231.86
2019-03-29T20:44:28.185Z,102227.30
2019-03-29T20:46:58.631Z,102225.20
2019-03-29T20:49:28.983Z,102228.40
2019-03-29T20:51:59.374Z,102227.91
2019-03-29T20:54:30.005Z,102219.02
2019-03-29T20:57:00.356Z,102217.55
2019-03-29T20:59:30.728Z,102218.29
2019-03-29T21:02:01.115Z,102219.90
2019-03-29T21:04:31.523Z,102218.17
2019-03-29T21:07:02.607Z,102213.60
2019-03-29T21:09:33.231Z,102215.70
2019-03-29T21:12:03.614Z,102209.52
2019-03-29T21:14:34.013Z,102215.06
2019-03-29T21:17:04.396Z,102210.50
2019-03-29T21:19:35.459Z,102207.30
2019-03-29T21:22:05.855Z,102216.81
2019-03-29T21:24:38.602Z,102212.36
2019-03-29T21:27:09.005Z,102211.12
2019-03-29T21:29:40.515Z,102205.08
2019-03-29T21:32:10.892Z,102201.49
2019-03-29T21:34:41.293Z,102206.69
2019-03-29T21:37:11.693Z,102203.47
2019-03-29T21:39:42.081Z,102205.58
2019-03-29T21:42:12.741Z,102202.85
2019-03-29T21:44:45.241Z,102202.61
2019-03-29T21:47:15.243Z,102196.31
2019-03-29T21:49:45.658Z,102193.97
2019-03-29T21:52:16.101Z,102194.58
2019-03-29T21:54:46.476Z,102192.11
2019-03-29T21:57:16.871Z,102193.72
2019-03-29T21:59:47.467Z,102188.41
2019-03-29T22:02:21.316Z,102186.06
2019-03-29T22:04:51.044Z,102184.59
2019-03-29T22:07:21.438Z,102187.80
2019-03-29T22:09:53.262Z,102182.98
2019-03-29T22:12:23.638Z,102176.80
2019-03-29T22:14:54.006Z,102175.57
2019-03-29T22:17:24.371Z,102180.09
2019-03-29T22:19:54.760Z,102180.22
2019-03-29T22:22:25.147Z,102175.90
2019-03-29T22:24:55.637Z,102182.80
2019-03-29T22:27:25.981Z,102173.67
2019-03-29T22:29:56.335Z,102173.30
2019-03-29T22:32:26.714Z,102173.28
2019-03-29T22:34:57.071Z,102168.23
2019-03-29T22:37:28.409Z,102166.47
2019-03-29T22:39:58.782Z,102161.47
2019-03-29T22:42:29.162Z,102164.55
2019-03-29T22:44:59.542Z,102159.06
2019-03-29T22:47:30.119Z,102159.37
2019-03-29T22:50:01.351Z,102163.33
2019-03-29T22:52:31.729Z,102163.16
2019-03-29T22:55:02.130Z,102160.27
2019-03-29T22:57:32.507Z,102150.45
2019-03-29T23:00:07.123Z,102157.82
2019-03-29T23:02:37.737Z,102149.87
2019-03-29T23:05:08.114Z,102149.77
2019-03-29T23:07:38.501Z,102144.17
2019-03-29T23:10:08.862Z,102140.58
2019-03-29T23:12:39.279Z,102134.52
2019-03-29T23:15:09.600Z,102136.23
2019-03-29T23:17:47.490Z,102140.90
2019-03-29T23:20:17.850Z,102139.27
2019-03-29T23:22:49.034Z,102132.63
2019-03-29T23:25:19.399Z,102130.04
2019-03-29T23:27:49.772Z,102123.38
2019-03-29T23:30:21.316Z,102129.19
2019-03-29T23:32:51.665Z,102120.36
2019-03-29T23:35:22.037Z,102124.91
2019-03-29T23:37:52.438Z,102125.58
2019-03-29T23:40:22.822Z,102128.63
2019-03-29T23:42:53.207Z,102134.12
2019-03-29T23:45:24.640Z,102134.38
2019-03-29T23:47:56.622Z,102133.85
2019-03-29T23:50:26.983Z,102135.84
2019-03-29T23:52:57.352Z,102129.52
2019-03-29T23:55:27.714Z,102131.63
2019-03-29T23:57:58.078Z,102132.11
